sensor_id;sensor_type;location;lat;lon;timestamp;pressure;altitude;pressure_sealevel;temperature;humidity
47883;BME280;37739;50.350;7.578;2023-07-29T00:00:53;99068.22;;;19.42;100.00
47883;BME280;37739;50.350;7.578;2023-07-29T00:03:18;99060.41;;;19.42;99.92
47883;BME280;37739;50.350;7.578;2023-07-29T00:05:49;99058.66;;;19.41;99.83
47883;BME280;37739;50.350;7.578;2023-07-29T00:08:15;99053.53;;;19.38;99.91
47883;BME280;37739;50.350;7.578;2023-07-29T00:10:44;99050.91;;;19.40;100.00
47883;BME280;37739;50.350;7.578;2023-07-29T00:13:12;99040.53;;;19.37;100.00
47883;BME280;37739;50.350;7.578;2023-07-29T00:15:40;99035.31;;;19.37;100.00
47883;BME280;37739;50.350;7.578;2023-07-29T00:18:05;99042.28;;;19.36;100.00
47883;BME280;37739;50.350;7.578;2023-07-29T00:20:30;99044.00;;;19.36;100.00
47883;BME280;37739;50.350;7.578;2023-07-29T00:23:00;99034.47;;;19.36;100.00
47883;BME280;37739;50.350;7.578;2023-07-29T00:25:26;99037.13;;;19.30;100.00
47883;BME280;37739;50.350;7.578;2023-07-29T00:27:55;99040.66;;;19.25;100.00
47883;BME280;37739;50.350;7.578;2023-07-29T00:30:20;99034.56;;;19.26;100.00
47883;BME280;37739;50.350;7.578;2023-07-29T00:32:48;99035.47;;;19.25;100.00
47883;BME280;37739;50.350;7.578;2023-07-29T00:35:13;99036.31;;;19.27;100.00
47883;BME280;37739;50.350;7.578;2023-07-29T00:37:38;99028.53;;;19.25;100.00
47883;BME280;37739;50.350;7.578;2023-07-29T00:40:13;99022.47;;;19.25;100.00
47883;BME280;37739;50.350;7.578;2023-07-29T00:42:39;99028.53;;;19.23;100.00
47883;BME280;37739;50.350;7.578;2023-07-29T00:45:05;99025.94;;;19.22;100.00
47883;BME280;37739;50.350;7.578;2023-07-29T00:47:32;99019.88;;;19.21;100.00
47883;BME280;37739;50.350;7.578;2023-07-29T00:49:58;99030.28;;;19.21;100.00
47883;BME280;37739;50.350;7.578;2023-07-29T00:52:31;99030.28;;;19.20;100.00
47883;BME280;37739;50.350;7.578;2023-07-29T00:54:56;99022.47;;;19.21;100.00
47883;BME280;37739;50.350;7.578;2023-07-29T00:57:24;99022.47;;;19.23;100.00
47883;BME280;37739;50.350;7.578;2023-07-29T00:59:51;99021.59;;;19.24;100.00
47883;BME280;37739;50.350;7.578;2023-07-29T01:02:16;99022.44;;;19.26;99.69
47883;BME280;37739;50.350;7.578;2023-07-29T01:04:42;99012.91;;;19.27;100.00
47883;BME280;37739;50.350;7.578;2023-07-29T01:07:22;99008.56;;;19.27;100.00
47883;BME280;37739;50.350;7.578;2023-07-29T01:10:01;99011.16;;;19.27;100.00
47883;BME280;37739;50.350;7.578;2023-07-29T01:12:40;99009.41;;;19.28;100.00
47883;BME280;37739;50.350;7.578;2023-07-29T01:15:23;99001.59;;;19.29;100.00
47883;BME280;37739;50.350;7.578;2023-07-29T01:17:52;98994.66;;;19.30;100.00
47883;BME280;37739;50.350;7.578;2023-07-29T01:20:24;98992.06;;;19.30;99.87
47883;BME280;37739;50.350;7.578;2023-07-29T01:22:52;99006.81;;;19.29;99.78
47883;BME280;37739;50.350;7.578;2023-07-29T01:25:23;99005.94;;;19.29;100.00
47883;BME280;37739;50.350;7.578;2023-07-29T01:27:49;99001.59;;;19.28;100.00
47883;BME280;37739;50.350;7.578;2023-07-29T01:30:17;99009.41;;;19.26;100.00
47883;BME280;37739;50.350;7.578;2023-07-29T01:32:56;99009.41;;;19.26;100.00
47883;BME280;37739;50.350;7.578;2023-07-29T01:35:30;99003.38;;;19.26;100.00
47883;BME280;37739;50.350;7.578;2023-07-29T01:38:03;98996.41;;;19.28;100.00
47883;BME280;37739;50.350;7.578;2023-07-29T01:40:30;99001.69;;;19.23;100.00
47883;BME280;37739;50.350;7.578;2023-07-29T01:42:58;99002.56;;;19.20;100.00
47883;BME280;37739;50.350;7.578;2023-07-29T01:45:24;98998.28;;;19.15;100.00
47883;BME280;37739;50.350;7.578;2023-07-29T01:47:53;99000.91;;;19.13;100.00
47883;BME280;37739;50.350;7.578;2023-07-29T01:50:18;99000.06;;;19.11;100.00
47883;BME280;37739;50.350;7.578;2023-07-29T01:52:46;98994.88;;;19.08;100.00
47883;BME280;37739;50.350;7.578;2023-07-29T01:55:13;98991.47;;;19.05;100.00
47883;BME280;37739;50.350;7.578;2023-07-29T01:57:39;98990.63;;;19.02;100.00
47883;BME280;37739;50.350;7.578;2023-07-29T02:00:04;98994.97;;;19.00;100.00
47883;BME280;37739;50.350;7.578;2023-07-29T02:02:32;98990.69;;;18.98;100.00
47883;BME280;37739;50.350;7.578;2023-07-29T02:04:57;98989.78;;;18.97;100.00
47883;BME280;37739;50.350;7.578;2023-07-29T02:07:23;98981.97;;;18.99;100.00
47883;BME280;37739;50.350;7.578;2023-07-29T02:09:48;98982.81;;;19.02;100.00
47883;BME280;37739;50.350;7.578;2023-07-29T02:12:13;98968.13;;;19.01;100.00
47883;BME280;37739;50.350;7.578;2023-07-29T02:14:43;98973.31;;;19.01;100.00
47883;BME280;37739;50.350;7.578;2023-07-29T02:17:08;98971.56;;;19.00;100.00
47883;BME280;37739;50.350;7.578;2023-07-29T02:19:34;98972.47;;;18.98;100.00
47883;BME280;37739;50.350;7.578;2023-07-29T02:22:02;98961.19;;;18.97;100.00
47883;BME280;37739;50.350;7.578;2023-07-29T02:24:31;98969.88;;;18.96;100.00
47883;BME280;37739;50.350;7.578;2023-07-29T02:26:57;98946.50;;;18.98;100.00
47883;BME280;37739;50.350;7.578;2023-07-29T02:29:24;98953.44;;;18.96;100.00
47883;BME280;37739;50.350;7.578;2023-07-29T02:31:50;98946.50;;;18.96;100.00
47883;BME280;37739;50.350;7.578;2023-07-29T02:34:16;98934.38;;;18.95;100.00
47883;BME280;37739;50.350;7.578;2023-07-29T02:36:41;98935.25;;;18.96;100.00
47883;BME280;37739;50.350;7.578;2023-07-29T02:39:13;98936.13;;;18.93;100.00
47883;BME280;37739;50.350;7.578;2023-07-29T02:41:38;98939.63;;;18.92;100.00
47883;BME280;37739;50.350;7.578;2023-07-29T02:44:05;98946.59;;;18.87;100.00
47883;BME280;37739;50.350;7.578;2023-07-29T02:46:30;98937.94;;;18.85;100.00
47883;BME280;37739;50.350;7.578;2023-07-29T02:48:55;98945.75;;;18.82;100.00
47883;BME280;37739;50.350;7.578;2023-07-29T02:51:23;98947.53;;;18.80;100.00
47883;BME280;37739;50.350;7.578;2023-07-29T02:53:48;98946.63;;;18.79;100.00
47883;BME280;37739;50.350;7.578;2023-07-29T02:56:16;98943.16;;;18.82;100.00
47883;BME280;37739;50.350;7.578;2023-07-29T02:58:41;98949.19;;;18.86;100.00
47883;BME280;37739;50.350;7.578;2023-07-29T03:01:09;98945.72;;;18.87;100.00
47883;BME280;37739;50.350;7.578;2023-07-29T03:03:34;98944.88;;;18.86;100.00
47883;BME280;37739;50.350;7.578;2023-07-29T03:06:01;98944.03;;;18.79;100.00
47883;BME280;37739;50.350;7.578;2023-07-29T03:08:27;98937.16;;;18.74;100.00
47883;BME280;37739;50.350;7.578;2023-07-29T03:10:56;98931.97;;;18.75;100.00
47883;BME280;37739;50.350;7.578;2023-07-29T03:13:24;98933.66;;;18.78;100.00
47883;BME280;37739;50.350;7.578;2023-07-29T03:15:50;98931.94;;;18.77;100.00
47883;BME280;37739;50.350;7.578;2023-07-29T03:18:15;98929.34;;;18.75;100.00
47883;BME280;37739;50.350;7.578;2023-07-29T03:20:41;98930.22;;;18.76;100.00
47883;BME280;37739;50.350;7.578;2023-07-29T03:23:06;98925.84;;;18.78;100.00
47883;BME280;37739;50.350;7.578;2023-07-29T03:25:32;98925.88;;;18.81;100.00
47883;BME280;37739;50.350;7.578;2023-07-29T03:28:00;98931.91;;;18.81;100.00
47883;BME280;37739;50.350;7.578;2023-07-29T03:30:27;98933.66;;;18.82;100.00
47883;BME280;37739;50.350;7.578;2023-07-29T03:32:53;98939.69;;;18.83;100.00
47883;BME280;37739;50.350;7.578;2023-07-29T03:35:18;98938.81;;;18.84;100.00
47883;BME280;37739;50.350;7.578;2023-07-29T03:37:47;98937.97;;;18.82;100.00
47883;BME280;37739;50.350;7.578;2023-07-29T03:40:12;98941.41;;;18.84;100.00
47883;BME280;37739;50.350;7.578;2023-07-29T03:42:38;98933.66;;;18.82;100.00
47883;BME280;37739;50.350;7.578;2023-07-29T03:45:03;98934.50;;;18.83;100.00
47883;BME280;37739;50.350;7.578;2023-07-29T03:47:29;98937.97;;;18.83;100.00
47883;BME280;37739;50.350;7.578;2023-07-29T03:49:54;98936.22;;;18.86;100.00
47883;BME280;37739;50.350;7.578;2023-07-29T03:52:19;98932.75;;;18.87;100.00
47883;BME280;37739;50.350;7.578;2023-07-29T03:54:45;98931.00;;;18.87;100.00
47883;BME280;37739;50.350;7.578;2023-07-29T03:57:10;98932.72;;;18.88;100.00
47883;BME280;37739;50.350;7.578;2023-07-29T03:59:36;98925.81;;;18.87;100.00
47883;BME280;37739;50.350;7.578;2023-07-29T04:02:01;98937.03;;;18.89;100.00
47883;BME280;37739;50.350;7.578;2023-07-29T04:04:29;98933.59;;;18.89;100.00
47883;BME280;37739;50.350;7.578;2023-07-29T04:06:54;98937.88;;;18.91;100.00
47883;BME280;37739;50.350;7.578;2023-07-29T04:09:22;98937.00;;;18.94;100.00
47883;BME280;37739;50.350;7.578;2023-07-29T04:11:48;98930.91;;;18.95;100.00
47883;BME280;37739;50.350;7.578;2023-07-29T04:14:13;98932.66;;;18.94;100.00
47883;BME280;37739;50.350;7.578;2023-07-29T04:16:41;98943.91;;;18.96;100.00
47883;BME280;37739;50.350;7.578;2023-07-29T04:19:08;98936.97;;;18.97;100.00
47883;BME280;37739;50.350;7.578;2023-07-29T04:21:36;98938.69;;;18.98;100.00
47883;BME280;37739;50.350;7.578;2023-07-29T04:24:04;98943.00;;;18.99;100.00
47883;BME280;37739;50.350;7.578;2023-07-29T04:26:31;98939.53;;;19.00;100.00
47883;BME280;37739;50.350;7.578;2023-07-29T04:28:56;98943.88;;;18.98;100.00
47883;BME280;37739;50.350;7.578;2023-07-29T04:31:26;98947.34;;;18.97;100.00
47883;BME280;37739;50.350;7.578;2023-07-29T04:33:52;98940.41;;;18.99;100.00
47883;BME280;37739;50.350;7.578;2023-07-29T04:36:17;98943.00;;;19.00;100.00
47883;BME280;37739;50.350;7.578;2023-07-29T04:38:44;98945.56;;;19.02;100.00
47883;BME280;37739;50.350;7.578;2023-07-29T04:41:12;98942.06;;;19.03;100.00
47883;BME280;37739;50.350;7.578;2023-07-29T04:43:42;98936.88;;;19.03;100.00
47883;BME280;37739;50.350;7.578;2023-07-29T04:46:08;98930.84;;;19.02;100.00
47883;BME280;37739;50.350;7.578;2023-07-29T04:48:38;98932.56;;;19.02;100.00
47883;BME280;37739;50.350;7.578;2023-07-29T04:51:06;98928.22;;;19.02;100.00
47883;BME280;37739;50.350;7.578;2023-07-29T04:53:33;98938.59;;;19.06;100.00
47883;BME280;37739;50.350;7.578;2023-07-29T04:56:02;98933.34;;;19.09;100.00
47883;BME280;37739;50.350;7.578;2023-07-29T04:58:27;98929.91;;;19.08;100.00
47883;BME280;37739;50.350;7.578;2023-07-29T05:00:55;98929.91;;;19.08;100.00
47883;BME280;37739;50.350;7.578;2023-07-29T05:03:22;98938.63;;;19.04;100.00
47883;BME280;37739;50.350;7.578;2023-07-29T05:05:52;98933.41;;;19.06;100.00
47883;BME280;37739;50.350;7.578;2023-07-29T05:08:22;98939.44;;;19.08;100.00
47883;BME280;37739;50.350;7.578;2023-07-29T05:10:53;98942.06;;;19.06;100.00
47883;BME280;37739;50.350;7.578;2023-07-29T05:13:19;98945.50;;;19.07;100.00
47883;BME280;37739;50.350;7.578;2023-07-29T05:15:45;98945.50;;;19.07;100.00
47883;BME280;37739;50.350;7.578;2023-07-29T05:18:13;98952.47;;;19.06;100.00
47883;BME280;37739;50.350;7.578;2023-07-29T05:20:40;98955.91;;;19.08;100.00
47883;BME280;37739;50.350;7.578;2023-07-29T05:23:06;98958.50;;;19.08;100.00
47883;BME280;37739;50.350;7.578;2023-07-29T05:25:31;98959.34;;;19.07;100.00
47883;BME280;37739;50.350;7.578;2023-07-29T05:27:57;98969.81;;;19.02;100.00
47883;BME280;37739;50.350;7.578;2023-07-29T05:30:22;98957.72;;;19.00;100.00
47883;BME280;37739;50.350;7.578;2023-07-29T05:32:48;98963.78;;;18.97;100.00
47883;BME280;37739;50.350;7.578;2023-07-29T05:35:17;98967.25;;;18.99;100.00
47883;BME280;37739;50.350;7.578;2023-07-29T05:37:43;98962.03;;;18.99;100.00
47883;BME280;37739;50.350;7.578;2023-07-29T05:40:08;98962.03;;;19.02;100.00
47883;BME280;37739;50.350;7.578;2023-07-29T05:42:34;98958.56;;;19.03;100.00
47883;BME280;37739;50.350;7.578;2023-07-29T05:45:02;98944.66;;;19.05;100.00
47883;BME280;37739;50.350;7.578;2023-07-29T05:47:27;98945.50;;;19.10;100.00
47883;BME280;37739;50.350;7.578;2023-07-29T05:49:53;98944.63;;;19.09;100.00
47883;BME280;37739;50.350;7.578;2023-07-29T05:52:18;98952.44;;;19.08;100.00
47883;BME280;37739;50.350;7.578;2023-07-29T05:54:44;98972.34;;;19.10;100.00
47883;BME280;37739;50.350;7.578;2023-07-29T05:57:12;98966.28;;;19.08;100.00
47883;BME280;37739;50.350;7.578;2023-07-29T05:59:37;98974.94;;;19.12;100.00
47883;BME280;37739;50.350;7.578;2023-07-29T06:02:03;98977.50;;;19.13;100.00
47883;BME280;37739;50.350;7.578;2023-07-29T06:04:29;98976.63;;;19.13;100.00
47883;BME280;37739;50.350;7.578;2023-07-29T06:06:56;98979.22;;;19.13;100.00
47883;BME280;37739;50.350;7.578;2023-07-29T06:09:22;98973.19;;;19.12;100.00
47883;BME280;37739;50.350;7.578;2023-07-29T06:11:48;98968.00;;;19.11;100.00
47883;BME280;37739;50.350;7.578;2023-07-29T06:14:13;98965.38;;;19.11;100.00
47883;BME280;37739;50.350;7.578;2023-07-29T06:16:38;98961.94;;;19.09;100.00
47883;BME280;37739;50.350;7.578;2023-07-29T06:19:04;98955.91;;;19.08;100.00
47883;BME280;37739;50.350;7.578;2023-07-29T06:21:29;98955.03;;;19.09;100.00
47883;BME280;37739;50.350;7.578;2023-07-29T06:23:57;98960.19;;;19.11;100.00
47883;BME280;37739;50.350;7.578;2023-07-29T06:26:25;98966.22;;;19.14;100.00
47883;BME280;37739;50.350;7.578;2023-07-29T06:28:50;98955.81;;;19.17;100.00
47883;BME280;37739;50.350;7.578;2023-07-29T06:31:15;98973.09;;;19.18;100.00
47883;BME280;37739;50.350;7.578;2023-07-29T06:33:45;98972.22;;;19.21;100.00
47883;BME280;37739;50.350;7.578;2023-07-29T06:36:11;98979.13;;;19.23;100.00
47883;BME280;37739;50.350;7.578;2023-07-29T06:38:41;98987.75;;;19.27;100.00
47883;BME280;37739;50.350;7.578;2023-07-29T06:41:09;98990.34;;;19.29;100.00
47883;BME280;37739;50.350;7.578;2023-07-29T06:43:34;98995.50;;;19.30;100.00
47883;BME280;37739;50.350;7.578;2023-07-29T06:45:59;98999.84;;;19.31;100.00
47883;BME280;37739;50.350;7.578;2023-07-29T06:48:24;99000.69;;;19.35;100.00
47883;BME280;37739;50.350;7.578;2023-07-29T06:50:50;98995.47;;;19.35;100.00
47883;BME280;37739;50.350;7.578;2023-07-29T06:53:16;98992.84;;;19.36;100.00
47883;BME280;37739;50.350;7.578;2023-07-29T06:55:41;98994.53;;;19.40;100.00
47883;BME280;37739;50.350;7.578;2023-07-29T06:58:09;98998.88;;;19.40;100.00
47883;BME280;37739;50.350;7.578;2023-07-29T07:00:35;98993.69;;;19.38;100.00
47883;BME280;37739;50.350;7.578;2023-07-29T07:03:02;98998.81;;;19.45;100.00
47883;BME280;37739;50.350;7.578;2023-07-29T07:05:30;98998.75;;;19.51;100.00
47883;BME280;37739;50.350;7.578;2023-07-29T07:07:55;98998.63;;;19.60;100.00
47883;BME280;37739;50.350;7.578;2023-07-29T07:10:21;99000.25;;;19.72;100.00
47883;BME280;37739;50.350;7.578;2023-07-29T07:12:46;99001.69;;;19.96;100.00
47883;BME280;37739;50.350;7.578;2023-07-29T07:15:16;99012.66;;;20.16;100.00
47883;BME280;37739;50.350;7.578;2023-07-29T07:17:42;99017.75;;;20.23;100.00
47883;BME280;37739;50.350;7.578;2023-07-29T07:20:07;99024.78;;;20.19;100.00
47883;BME280;37739;50.350;7.578;2023-07-29T07:22:33;99019.69;;;20.10;100.00
47883;BME280;37739;50.350;7.578;2023-07-29T07:25:01;99013.78;;;19.98;100.00
47883;BME280;37739;50.350;7.578;2023-07-29T07:27:26;99018.09;;;19.99;100.00
47883;BME280;37739;50.350;7.578;2023-07-29T07:29:54;99015.47;;;20.03;100.00
47883;BME280;37739;50.350;7.578;2023-07-29T07:32:21;99018.06;;;20.03;100.00
47883;BME280;37739;50.350;7.578;2023-07-29T07:34:50;99016.91;;;20.22;100.00
47883;BME280;37739;50.350;7.578;2023-07-29T07:37:15;99013.13;;;20.42;100.00
47883;BME280;37739;50.350;7.578;2023-07-29T07:39:43;99015.56;;;20.55;100.00
47883;BME280;37739;50.350;7.578;2023-07-29T07:42:11;99013.72;;;20.62;100.00
47883;BME280;37739;50.350;7.578;2023-07-29T07:44:38;99001.38;;;20.73;100.00
47883;BME280;37739;50.350;7.578;2023-07-29T07:47:06;99010.72;;;20.85;100.00
47883;BME280;37739;50.350;7.578;2023-07-29T07:49:34;99019.94;;;21.05;100.00
47883;BME280;37739;50.350;7.578;2023-07-29T07:51:59;99023.16;;;21.19;99.54
47883;BME280;37739;50.350;7.578;2023-07-29T07:54:24;99022.94;;;21.31;96.20
47883;BME280;37739;50.350;7.578;2023-07-29T07:56:49;99020.22;;;21.36;96.35
47883;BME280;37739;50.350;7.578;2023-07-29T07:59:15;99018.63;;;21.29;96.89
47883;BME280;37739;50.350;7.578;2023-07-29T08:01:40;99024.06;;;21.16;96.75
47883;BME280;37739;50.350;7.578;2023-07-29T08:04:08;99025.97;;;21.07;97.99
47883;BME280;37739;50.350;7.578;2023-07-29T08:06:33;99029.72;;;20.92;97.95
47883;BME280;37739;50.350;7.578;2023-07-29T08:08:59;99034.16;;;20.87;98.64
47883;BME280;37739;50.350;7.578;2023-07-29T08:11:26;99042.97;;;20.79;98.12
47883;BME280;37739;50.350;7.578;2023-07-29T08:13:52;99034.34;;;20.74;97.45
47883;BME280;37739;50.350;7.578;2023-07-29T08:16:17;99026.50;;;20.76;96.83
47883;BME280;37739;50.350;7.578;2023-07-29T08:18:45;99022.13;;;20.78;95.76
47883;BME280;37739;50.350;7.578;2023-07-29T08:21:12;99023.59;;;20.94;95.15
47883;BME280;37739;50.350;7.578;2023-07-29T08:23:37;99021.41;;;21.20;94.03
47883;BME280;37739;50.350;7.578;2023-07-29T08:26:07;99027.16;;;21.38;92.40
47883;BME280;37739;50.350;7.578;2023-07-29T08:28:34;99029.66;;;21.43;90.81
47883;BME280;37739;50.350;7.578;2023-07-29T08:31:00;99032.31;;;21.40;91.54
47883;BME280;37739;50.350;7.578;2023-07-29T08:33:30;99039.44;;;21.30;91.44
47883;BME280;37739;50.350;7.578;2023-07-29T08:35:57;99035.22;;;21.25;91.91
47883;BME280;37739;50.350;7.578;2023-07-29T08:38:22;99033.59;;;21.19;92.16
47883;BME280;37739;50.350;7.578;2023-07-29T08:43:19;99035.72;;;20.97;91.32
47883;BME280;37739;50.350;7.578;2023-07-29T08:45:45;99034.03;;;20.94;92.14
47883;BME280;37739;50.350;7.578;2023-07-29T08:48:12;99043.66;;;20.91;92.02
47883;BME280;37739;50.350;7.578;2023-07-29T08:50:41;99035.84;;;20.91;92.23
47883;BME280;37739;50.350;7.578;2023-07-29T08:53:10;99037.53;;;20.92;92.01
47883;BME280;37739;50.350;7.578;2023-07-29T08:55:36;99042.81;;;20.89;92.00
47883;BME280;37739;50.350;7.578;2023-07-29T08:58:04;99040.19;;;20.90;92.31
47883;BME280;37739;50.350;7.578;2023-07-29T09:00:32;99047.97;;;20.92;92.13
47883;BME280;37739;50.350;7.578;2023-07-29T09:03:02;99048.78;;;20.95;91.80
47883;BME280;37739;50.350;7.578;2023-07-29T09:05:33;99048.78;;;20.95;90.71
47883;BME280;37739;50.350;7.578;2023-07-29T09:08:02;99056.66;;;20.94;90.86
47883;BME280;37739;50.350;7.578;2023-07-29T09:10:37;99063.75;;;20.84;90.76
47883;BME280;37739;50.350;7.578;2023-07-29T09:13:06;99069.06;;;20.76;91.20
47883;BME280;37739;50.350;7.578;2023-07-29T09:15:33;99064.06;;;20.66;90.44
47883;BME280;37739;50.350;7.578;2023-07-29T09:17:59;99072.88;;;20.54;90.15
47883;BME280;37739;50.350;7.578;2023-07-29T09:20:38;99078.31;;;20.40;89.93
47883;BME280;37739;50.350;7.578;2023-07-29T09:23:07;99073.28;;;20.26;91.17
47883;BME280;37739;50.350;7.578;2023-07-29T09:25:38;99069.84;;;20.24;92.05
47883;BME280;37739;50.350;7.578;2023-07-29T09:28:12;99075.06;;;20.23;92.60
47883;BME280;37739;50.350;7.578;2023-07-29T09:30:43;99080.22;;;20.27;92.41
47883;BME280;37739;50.350;7.578;2023-07-29T09:33:10;99074.09;;;20.30;92.87
47883;BME280;37739;50.350;7.578;2023-07-29T09:35:37;99072.34;;;20.30;92.24
47883;BME280;37739;50.350;7.578;2023-07-29T09:38:05;99076.59;;;20.37;92.66
47883;BME280;37739;50.350;7.578;2023-07-29T09:40:38;99081.75;;;20.42;92.49
47883;BME280;37739;50.350;7.578;2023-07-29T09:43:04;99077.31;;;20.47;92.58
47883;BME280;37739;50.350;7.578;2023-07-29T09:45:34;99079.00;;;20.51;92.63
47883;BME280;37739;50.350;7.578;2023-07-29T09:48:00;99090.22;;;20.56;92.26
47883;BME280;37739;50.350;7.578;2023-07-29T09:50:27;99091.13;;;20.55;91.73
47883;BME280;37739;50.350;7.578;2023-07-29T09:52:54;99096.38;;;20.51;91.81
47883;BME280;37739;50.350;7.578;2023-07-29T09:55:24;99100.72;;;20.50;92.20
47883;BME280;37739;50.350;7.578;2023-07-29T09:57:57;99099.06;;;20.46;92.75
47883;BME280;37739;50.350;7.578;2023-07-29T10:00:30;99099.94;;;20.44;93.25
47883;BME280;37739;50.350;7.578;2023-07-29T10:02:59;99105.34;;;20.31;93.26
47883;BME280;37739;50.350;7.578;2023-07-29T10:05:30;99108.16;;;20.14;94.94
47883;BME280;37739;50.350;7.578;2023-07-29T10:07:56;99111.66;;;20.13;95.51
47883;BME280;37739;50.350;7.578;2023-07-29T10:10:22;99115.03;;;20.18;95.76
47883;BME280;37739;50.350;7.578;2023-07-29T10:12:50;99103.69;;;20.24;96.14
47883;BME280;37739;50.350;7.578;2023-07-29T10:15:20;99104.41;;;20.34;96.03
47883;BME280;37739;50.350;7.578;2023-07-29T10:17:46;99103.34;;;20.50;95.77
47883;BME280;37739;50.350;7.578;2023-07-29T10:20:14;99106.69;;;20.62;95.82
47883;BME280;37739;50.350;7.578;2023-07-29T10:22:42;99100.47;;;20.69;95.33
47883;BME280;37739;50.350;7.578;2023-07-29T10:25:18;99096.19;;;20.66;94.85
47883;BME280;37739;50.350;7.578;2023-07-29T10:27:56;99091.75;;;20.73;94.82
47883;BME280;37739;50.350;7.578;2023-07-29T10:30:24;99087.28;;;20.79;94.17
47883;BME280;37739;50.350;7.578;2023-07-29T10:32:50;99088.81;;;20.93;93.79
47883;BME280;37739;50.350;7.578;2023-07-29T10:35:19;99076.03;;;21.29;93.47
47883;BME280;37739;50.350;7.578;2023-07-29T10:37:45;99072.66;;;21.69;92.18
47883;BME280;37739;50.350;7.578;2023-07-29T10:40:11;99073.63;;;22.07;91.19
47883;BME280;37739;50.350;7.578;2023-07-29T10:43:00;99070.53;;;22.31;89.84
47883;BME280;37739;50.350;7.578;2023-07-29T10:45:39;99074.56;;;22.46;85.30
47883;BME280;37739;50.350;7.578;2023-07-29T10:50:35;99066.22;;;23.04;86.59
47883;BME280;37739;50.350;7.578;2023-07-29T10:53:03;99065.03;;;23.16;84.20
47883;BME280;37739;50.350;7.578;2023-07-29T10:55:34;99061.53;;;23.48;84.53
47883;BME280;37739;50.350;7.578;2023-07-29T10:58:12;99052.97;;;23.74;80.64
47883;BME280;37739;50.350;7.578;2023-07-29T11:00:38;99059.41;;;23.94;81.24
47883;BME280;37739;50.350;7.578;2023-07-29T11:03:10;99054.63;;;23.78;81.31
47883;BME280;37739;50.350;7.578;2023-07-29T11:05:54;99059.91;;;24.06;78.06
47883;BME280;37739;50.350;7.578;2023-07-29T11:11:07;99055.94;;;24.51;70.29
47883;BME280;37739;50.350;7.578;2023-07-29T11:13:35;99048.72;;;24.84;72.06
47883;BME280;37739;50.350;7.578;2023-07-29T11:16:01;99051.84;;;24.96;71.45
47883;BME280;37739;50.350;7.578;2023-07-29T11:18:32;99045.19;;;25.12;67.61
47883;BME280;37739;50.350;7.578;2023-07-29T11:20:59;99045.94;;;25.16;68.84
47883;BME280;37739;50.350;7.578;2023-07-29T11:23:32;99038.16;;;25.13;67.82
47883;BME280;37739;50.350;7.578;2023-07-29T11:26:02;99042.81;;;24.23;67.50
47883;BME280;37739;50.350;7.578;2023-07-29T11:28:28;99042.47;;;24.05;69.61
47883;BME280;37739;50.350;7.578;2023-07-29T11:30:56;99046.75;;;23.78;70.50
47883;BME280;37739;50.350;7.578;2023-07-29T11:33:25;99042.31;;;23.49;72.79
47883;BME280;37739;50.350;7.578;2023-07-29T11:35:53;99046.09;;;23.39;72.04
47883;BME280;37739;50.350;7.578;2023-07-29T11:38:22;99029.09;;;23.53;73.62
47883;BME280;37739;50.350;7.578;2023-07-29T11:41:03;99030.75;;;23.58;68.56
47883;BME280;37739;50.350;7.578;2023-07-29T11:43:35;99045.28;;;23.37;71.89
47883;BME280;37739;50.350;7.578;2023-07-29T11:46:02;99036.19;;;23.17;70.68
47883;BME280;37739;50.350;7.578;2023-07-29T11:48:32;99032.00;;;23.11;69.47
47883;BME280;37739;50.350;7.578;2023-07-29T11:51:01;99033.66;;;23.16;70.53
47883;BME280;37739;50.350;7.578;2023-07-29T11:53:30;99017.66;;;23.25;70.86
47883;BME280;37739;50.350;7.578;2023-07-29T11:55:56;99020.47;;;23.19;71.81
47883;BME280;37739;50.350;7.578;2023-07-29T11:58:24;99015.75;;;22.99;72.00
47883;BME280;37739;50.350;7.578;2023-07-29T12:00:51;99025.81;;;22.80;72.80
47883;BME280;37739;50.350;7.578;2023-07-29T12:03:16;99032.22;;;22.68;72.93
47883;BME280;37739;50.350;7.578;2023-07-29T12:05:44;99039.06;;;22.72;74.29
47883;BME280;37739;50.350;7.578;2023-07-29T12:08:10;99038.09;;;22.76;73.34
47883;BME280;37739;50.350;7.578;2023-07-29T12:10:36;99027.88;;;23.03;74.03
47883;BME280;37739;50.350;7.578;2023-07-29T12:13:02;99026.09;;;23.02;73.24
47883;BME280;37739;50.350;7.578;2023-07-29T12:15:28;99025.94;;;23.09;73.38
47883;BME280;37739;50.350;7.578;2023-07-29T12:17:55;99018.53;;;23.57;71.73
47883;BME280;37739;50.350;7.578;2023-07-29T12:20:24;99017.28;;;23.70;70.16
47883;BME280;37739;50.350;7.578;2023-07-29T12:22:56;99013.25;;;24.46;67.57
47883;BME280;37739;50.350;7.578;2023-07-29T12:25:26;99003.13;;;24.35;66.88
47883;BME280;37739;50.350;7.578;2023-07-29T12:27:51;98995.28;;;24.88;67.77
47883;BME280;37739;50.350;7.578;2023-07-29T12:30:22;99011.28;;;24.54;65.95
47883;BME280;37739;50.350;7.578;2023-07-29T12:32:48;99011.56;;;24.98;67.52
47883;BME280;37739;50.350;7.578;2023-07-29T12:35:13;98998.53;;;24.95;64.99
47883;BME280;37739;50.350;7.578;2023-07-29T12:37:39;99006.75;;;25.60;64.04
47883;BME280;37739;50.350;7.578;2023-07-29T12:40:29;99002.59;;;25.78;61.31
47883;BME280;37739;50.350;7.578;2023-07-29T12:42:54;99010.69;;;25.23;55.39
47883;BME280;37739;50.350;7.578;2023-07-29T12:45:24;99020.94;;;24.79;62.47
47883;BME280;37739;50.350;7.578;2023-07-29T12:47:52;99011.34;;;24.23;64.70
47883;BME280;37739;50.350;7.578;2023-07-29T12:50:17;99005.88;;;23.72;65.88
47883;BME280;37739;50.350;7.578;2023-07-29T12:52:43;99009.84;;;23.56;67.72
47883;BME280;37739;50.350;7.578;2023-07-29T12:55:10;99019.53;;;23.52;67.86
47883;BME280;37739;50.350;7.578;2023-07-29T12:57:40;99017.53;;;23.31;66.34
47883;BME280;37739;50.350;7.578;2023-07-29T13:00:06;99032.22;;;23.37;66.08
47883;BME280;37739;50.350;7.578;2023-07-29T13:02:32;99017.94;;;23.16;64.31
47883;BME280;37739;50.350;7.578;2023-07-29T13:04:57;99024.41;;;23.01;66.52